createdAt,value
2022-10-23T00:00:13.770Z,1015.12
2022-10-23T00:01:14.139Z,1015.12
2022-10-23T00:02:26.531Z,1015.10
2022-10-23T00:03:13.944Z,1015.14
2022-10-23T00:04:13.282Z,1015.15
2022-10-23T00:05:13.310Z,1015.17
2022-10-23T00:06:13.582Z,1015.15
2022-10-23T00:07:49.457Z,1015.09
2022-10-23T00:08:13.182Z,1015.05
2022-10-23T00:09:13.388Z,1015.07
2022-10-23T00:10:34.148Z,1015.06
2022-10-23T00:11:13.227Z,1015.06
2022-10-23T00:12:13.528Z,1015.05
2022-10-23T00:13:13.632Z,1015.11
2022-10-23T00:14:13.826Z,1015.13
2022-10-23T00:15:14.127Z,1015.14
2022-10-23T00:16:13.196Z,1015.16
2022-10-23T00:17:13.253Z,1015.11
2022-10-23T00:18:13.224Z,1015.13
2022-10-23T00:19:13.191Z,1015.07
2022-10-23T00:20:13.123Z,1015.05
2022-10-23T00:21:13.337Z,1015.03
2022-10-23T00:22:13.377Z,1015.06
2022-10-23T00:23:13.474Z,1015.08
2022-10-23T00:24:13.639Z,1015.10
2022-10-23T00:25:13.613Z,1015.12
2022-10-23T00:26:13.416Z,1015.13
2022-10-23T00:27:13.346Z,1015.11
2022-10-23T00:28:13.371Z,1015.11
2022-10-23T00:29:13.538Z,1015.05
2022-10-23T00:30:13.635Z,1015.10
2022-10-23T00:31:13.609Z,1015.08
2022-10-23T00:32:13.437Z,1015.02
2022-10-23T00:33:13.331Z,1015.06
2022-10-23T00:34:13.786Z,1015.06
2022-10-23T00:35:14.080Z,1015.08
2022-10-23T00:36:13.157Z,1015.13
2022-10-23T00:37:12.989Z,1015.14
2022-10-23T00:38:14.178Z,1015.18
2022-10-23T00:39:13.383Z,1015.16
2022-10-23T00:40:13.291Z,1015.14
2022-10-23T00:41:13.217Z,1015.15
2022-10-23T00:42:13.098Z,1015.11
2022-10-23T00:43:13.461Z,1015.10
2022-10-23T00:44:13.804Z,1015.09
2022-10-23T00:45:13.784Z,1015.09
2022-10-23T00:46:13.895Z,1015.14
2022-10-23T00:47:12.921Z,1015.11
2022-10-23T00:48:12.946Z,1015.12
2022-10-23T00:50:13.959Z,1015.10
2022-10-23T00:51:12.886Z,1015.15
2022-10-23T00:52:12.774Z,1015.16
2022-10-23T00:53:13.868Z,1015.16
2022-10-23T00:54:24.816Z,1015.14
2022-10-23T00:55:13.105Z,1015.14
2022-10-23T00:56:13.151Z,1015.14
2022-10-23T00:57:13.276Z,1015.19
2022-10-23T00:58:13.330Z,1015.15
2022-10-23T00:59:13.761Z,1015.20
2022-10-23T01:00:13.794Z,1015.19
2022-10-23T01:01:14.019Z,1015.17
2022-10-23T01:02:13.188Z,1015.17
2022-10-23T01:03:13.323Z,1015.17
2022-10-23T01:04:13.463Z,1015.16
2022-10-23T01:05:13.594Z,1015.15
2022-10-23T01:06:13.835Z,1015.13
2022-10-23T01:07:13.672Z,1015.10
2022-10-23T01:08:13.573Z,1015.09
2022-10-23T01:09:13.561Z,1015.06
2022-10-23T01:10:13.761Z,1015.10
2022-10-23T01:11:13.647Z,1015.08
2022-10-23T01:12:13.602Z,1015.05
2022-10-23T01:13:13.785Z,1015.03
2022-10-23T01:14:14.071Z,1015.03
2022-10-23T01:15:12.926Z,1015.05
2022-10-23T01:16:12.807Z,1015.06
2022-10-23T01:17:14.072Z,1015.02
2022-10-23T01:18:13.165Z,1015.03
2022-10-23T01:19:13.061Z,1015.05
2022-10-23T01:20:12.973Z,1015.05
2022-10-23T01:21:13.015Z,1015.01
2022-10-23T01:22:13.275Z,1015.00
2022-10-23T01:23:13.359Z,1015.01
2022-10-23T01:24:13.666Z,1015.00
2022-10-23T01:25:13.569Z,1014.98
2022-10-23T01:26:13.482Z,1014.99
2022-10-23T01:27:13.347Z,1014.98
2022-10-23T01:28:13.405Z,1014.95
2022-10-23T01:29:13.306Z,1014.92
2022-10-23T01:30:13.181Z,1014.92
2022-10-23T01:31:13.229Z,1014.92
2022-10-23T01:32:13.309Z,1014.89
2022-10-23T01:33:13.440Z,1014.92
2022-10-23T01:34:13.439Z,1014.89
2022-10-23T01:35:13.560Z,1014.88
2022-10-23T01:36:13.750Z,1014.88
2022-10-23T01:37:13.861Z,1014.90
2022-10-23T01:38:13.735Z,1014.92
2022-10-23T01:39:14.043Z,1014.88
2022-10-23T01:40:12.843Z,1014.88
2022-10-23T01:41:13.905Z,1014.84
2022-10-23T01:42:12.788Z,1014.90
2022-10-23T01:43:13.690Z,1014.90
2022-10-23T01:44:13.734Z,1014.87
2022-10-23T01:45:13.765Z,1014.85
2022-10-23T01:46:13.852Z,1014.84
2022-10-23T01:47:14.408Z,1014.82
2022-10-23T01:48:13.850Z,1014.83
2022-10-23T01:49:14.059Z,1014.81
2022-10-23T01:50:13.108Z,1014.81
2022-10-23T01:51:14.496Z,1014.78
2022-10-23T01:52:13.963Z,1014.75
2022-10-23T01:53:13.004Z,1014.71
2022-10-23T01:54:12.896Z,1014.72
2022-10-23T01:55:12.816Z,1014.75
2022-10-23T01:56:14.000Z,1014.72
2022-10-23T01:57:12.882Z,1014.73
2022-10-23T01:58:13.990Z,1014.69
2022-10-23T01:59:14.139Z,1014.68
2022-10-23T02:00:13.317Z,1014.69
2022-10-23T02:01:18.577Z,1014.67
2022-10-23T02:02:13.723Z,1014.65
2022-10-23T02:03:13.701Z,1014.68
2022-10-23T02:04:13.967Z,1014.65
2022-10-23T02:05:13.014Z,1014.62
2022-10-23T02:06:12.932Z,1014.62
2022-10-23T02:07:13.141Z,1014.61
2022-10-23T02:08:13.095Z,1014.58
2022-10-23T02:09:13.053Z,1014.57
2022-10-23T02:10:13.280Z,1014.49
2022-10-23T02:11:13.180Z,1014.47
2022-10-23T02:12:13.148Z,1014.49
2022-10-23T02:13:13.386Z,1014.44
2022-10-23T02:14:13.662Z,1014.46
2022-10-23T02:15:13.794Z,1014.46
2022-10-23T02:16:14.012Z,1014.45
2022-10-23T02:17:13.080Z,1014.41
2022-10-23T02:18:13.143Z,1014.40
2022-10-23T02:19:13.268Z,1014.40
2022-10-23T02:20:13.339Z,1014.37
2022-10-23T02:21:13.357Z,1014.33
2022-10-23T02:22:13.248Z,1014.33
2022-10-23T02:23:13.157Z,1014.34
2022-10-23T02:24:13.226Z,1014.35
2022-10-23T02:25:13.134Z,1014.34
2022-10-23T02:26:13.716Z,1014.36
2022-10-23T02:27:13.934Z,1014.35
2022-10-23T02:28:12.906Z,1014.35
2022-10-23T02:29:12.743Z,1014.36
2022-10-23T02:30:13.506Z,1014.30
2022-10-23T02:31:13.412Z,1014.32
2022-10-23T02:32:13.428Z,1014.28
2022-10-23T02:33:13.204Z,1014.28
2022-10-23T02:34:13.106Z,1014.29
2022-10-23T02:35:12.929Z,1014.25
2022-10-23T02:36:12.927Z,1014.30
2022-10-23T02:37:13.024Z,1014.25
2022-10-23T02:38:13.261Z,1014.22
2022-10-23T02:39:13.271Z,1014.22
2022-10-23T02:40:13.149Z,1014.21
2022-10-23T02:41:13.332Z,1014.19
2022-10-23T02:42:13.213Z,1014.20
2022-10-23T02:43:13.534Z,1014.18
2022-10-23T02:44:13.338Z,1014.22
2022-10-23T02:45:13.277Z,1014.16
2022-10-23T02:46:13.385Z,1014.11
2022-10-23T02:47:13.274Z,1014.14
2022-10-23T02:48:13.302Z,1014.13
2022-10-23T02:49:13.601Z,1014.15
2022-10-23T02:50:13.461Z,1014.08
2022-10-23T02:51:13.289Z,1014.10
2022-10-23T02:52:13.268Z,1014.08
2022-10-23T02:53:13.289Z,1014.05
2022-10-23T02:54:13.419Z,1014.01
2022-10-23T02:55:13.352Z,1013.97
2022-10-23T02:56:13.280Z,1013.96
2022-10-23T02:57:13.523Z,1013.97
2022-10-23T02:58:13.432Z,1013.97
2022-10-23T02:59:13.526Z,1013.94
2022-10-23T03:00:13.481Z,1013.95
2022-10-23T03:01:13.480Z,1013.95
2022-10-23T03:02:13.520Z,1013.94
2022-10-23T03:03:13.675Z,1013.96
2022-10-23T03:04:13.617Z,1013.94
2022-10-23T03:05:13.797Z,1013.94
2022-10-23T03:06:14.038Z,1013.92
2022-10-23T03:07:13.458Z,1013.93
2022-10-23T03:08:13.313Z,1013.92
2022-10-23T03:09:13.153Z,1013.92
2022-10-23T03:10:13.050Z,1013.89
2022-10-23T03:11:13.319Z,1013.92
2022-10-23T03:12:13.140Z,1013.91
2022-10-23T03:13:13.071Z,1013.92
2022-10-23T03:14:13.111Z,1013.93
2022-10-23T03:15:13.038Z,1013.93
2022-10-23T03:16:12.944Z,1013.94
2022-10-23T03:17:12.872Z,1013.92
2022-10-23T03:18:13.958Z,1013.96
2022-10-23T03:19:12.915Z,1013.92
2022-10-23T03:20:12.740Z,1013.92
2022-10-23T03:21:13.555Z,1013.88
2022-10-23T03:22:13.443Z,1013.89
2022-10-23T03:23:13.475Z,1013.81
2022-10-23T03:24:13.599Z,1013.79
2022-10-23T03:25:13.624Z,1013.74
2022-10-23T03:26:13.935Z,1013.70
2022-10-23T03:27:12.874Z,1013.70
2022-10-23T03:28:14.258Z,1013.68
2022-10-23T03:29:13.184Z,1013.66
2022-10-23T03:30:13.198Z,1013.67
2022-10-23T03:31:13.120Z,1013.65
2022-10-23T03:32:13.182Z,1013.69
2022-10-23T03:33:13.202Z,1013.61
2022-10-23T03:34:13.113Z,1013.62
2022-10-23T03:35:13.012Z,1013.65
2022-10-23T03:36:12.983Z,1013.64
2022-10-23T03:37:12.928Z,1013.62
2022-10-23T03:38:12.856Z,1013.61
2022-10-23T03:39:13.741Z,1013.58
2022-10-23T03:40:13.661Z,1013.59
2022-10-23T03:41:13.563Z,1013.59
2022-10-23T03:42:18.473Z,1013.58
2022-10-23T03:43:13.434Z,1013.55
2022-10-23T03:44:13.399Z,1013.56
2022-10-23T03:45:13.466Z,1013.55
2022-10-23T03:46:13.357Z,1013.50
2022-10-23T03:47:13.585Z,1013.53
2022-10-23T03:48:13.544Z,1013.48
2022-10-23T03:49:13.448Z,1013.46
2022-10-23T03:50:13.326Z,1013.46
2022-10-23T03:51:13.270Z,1013.45
2022-10-23T03:52:13.236Z,1013.39
2022-10-23T03:53:13.372Z,1013.39
2022-10-23T03:54:13.302Z,1013.36
2022-10-23T03:55:13.304Z,1013.34
2022-10-23T03:56:13.224Z,1013.35
2022-10-23T03:57:13.584Z,1013.32
2022-10-23T03:58:13.557Z,1013.32
2022-10-23T03:59:13.718Z,1013.31
2022-10-23T04:00:13.647Z,1013.35
2022-10-23T04:01:13.675Z,1013.38
2022-10-23T04:02:14.093Z,1013.40
2022-10-23T04:03:13.106Z,1013.41
2022-10-23T04:04:13.038Z,1013.44
2022-10-23T04:05:12.882Z,1013.41
2022-10-23T04:06:14.084Z,1013.39
2022-10-23T04:07:13.304Z,1013.38
2022-10-23T04:08:17.524Z,1013.35
2022-10-23T04:10:13.481Z,1013.31
2022-10-23T04:11:13.818Z,1013.32
2022-10-23T04:12:13.991Z,1013.34
2022-10-23T04:13:12.957Z,1013.37
2022-10-23T04:14:12.959Z,1013.37
2022-10-23T04:15:12.881Z,1013.33
2022-10-23T04:16:12.995Z,1013.28
2022-10-23T04:17:13.395Z,1013.24
2022-10-23T04:18:13.511Z,1013.23
2022-10-23T04:19:13.389Z,1013.20
2022-10-23T04:20:13.571Z,1013.21
2022-10-23T04:21:13.479Z,1013.23
2022-10-23T04:22:13.355Z,1013.24
2022-10-23T04:23:13.501Z,1013.25
2022-10-23T04:24:19.699Z,1013.27
2022-10-23T04:25:13.733Z,1013.28
2022-10-23T04:26:14.139Z,1013.31
2022-10-23T04:27:13.281Z,1013.33
2022-10-23T04:28:13.061Z,1013.35
2022-10-23T04:29:13.131Z,1013.33
2022-10-23T04:30:13.414Z,1013.34
2022-10-23T04:31:13.306Z,1013.34
2022-10-23T04:32:13.263Z,1013.30
2022-10-23T04:33:13.179Z,1013.31
2022-10-23T04:34:13.295Z,1013.29
2022-10-23T04:35:13.173Z,1013.30
2022-10-23T04:36:12.997Z,1013.28
2022-10-23T04:37:13.126Z,1013.30
2022-10-23T04:38:13.213Z,1013.28
2022-10-23T04:39:13.362Z,1013.29
2022-10-23T04:40:13.472Z,1013.24
2022-10-23T04:41:13.485Z,1013.19
2022-10-23T04:42:14.283Z,1013.20
2022-10-23T04:43:13.293Z,1013.23
2022-10-23T04:44:14.302Z,1013.21
2022-10-23T04:45:13.253Z,1013.22
2022-10-23T04:46:13.233Z,1013.21
2022-10-23T04:47:13.138Z,1013.23
2022-10-23T04:48:13.451Z,1013.19
2022-10-23T04:49:13.346Z,1013.17
2022-10-23T04:50:13.213Z,1013.20
2022-10-23T04:51:13.496Z,1013.21
2022-10-23T04:52:13.871Z,1013.18
2022-10-23T04:53:13.934Z,1013.22
2022-10-23T04:54:12.993Z,1013.19
2022-10-23T04:55:12.866Z,1013.18
2022-10-23T04:56:14.057Z,1013.20
2022-10-23T04:57:13.245Z,1013.15
2022-10-23T04:58:13.623Z,1013.11
2022-10-23T04:59:13.496Z,1013.08
2022-10-23T05:00:13.429Z,1013.06
2022-10-23T05:01:13.380Z,1013.00
2022-10-23T05:02:13.325Z,1013.00
2022-10-23T05:03:13.532Z,1012.99
2022-10-23T05:04:13.438Z,1013.02
2022-10-23T05:05:13.955Z,1013.02
2022-10-23T05:06:12.861Z,1013.02
2022-10-23T05:07:13.883Z,1013.01
2022-10-23T05:08:15.641Z,1012.99
2022-10-23T05:09:12.919Z,1012.97
2022-10-23T05:10:12.894Z,1012.95
2022-10-23T05:11:13.803Z,1012.92
2022-10-23T05:12:13.789Z,1012.88
2022-10-23T05:13:14.070Z,1012.90
2022-10-23T05:14:13.158Z,1012.87
2022-10-23T05:15:13.498Z,1012.86
2022-10-23T05:16:13.492Z,1012.89
2022-10-23T05:17:13.592Z,1012.91
2022-10-23T05:18:13.485Z,1012.94
2022-10-23T05:19:13.443Z,1012.94
2022-10-23T05:20:13.325Z,1012.98
2022-10-23T05:21:13.279Z,1013.03
2022-10-23T05:22:13.153Z,1012.99
2022-10-23T05:23:12.995Z,1012.95
2022-10-23T05:24:13.096Z,1012.95
2022-10-23T05:25:13.355Z,1012.90
2022-10-23T05:26:13.203Z,1012.92
2022-10-23T05:27:13.210Z,1012.91
2022-10-23T05:28:13.358Z,1012.92
2022-10-23T05:29:13.401Z,1012.94
2022-10-23T05:30:13.186Z,1012.93
2022-10-23T05:31:13.037Z,1012.90
2022-10-23T05:32:13.229Z,1012.88
2022-10-23T05:33:13.388Z,1012.88
2022-10-23T05:34:13.536Z,1012.91
2022-10-23T05:35:13.519Z,1012.89
2022-10-23T05:36:13.496Z,1012.90
2022-10-23T05:37:13.483Z,1012.89
2022-10-23T05:38:13.533Z,1012.87
2022-10-23T05:39:13.522Z,1012.90
2022-10-23T05:40:14.020Z,1012.88
2022-10-23T05:41:13.412Z,1012.84
2022-10-23T05:42:13.711Z,1012.82
2022-10-23T05:43:13.700Z,1012.77
2022-10-23T05:44:13.738Z,1012.75
2022-10-23T05:45:13.611Z,1012.81
2022-10-23T05:46:13.619Z,1012.81
2022-10-23T05:47:13.549Z,1012.83
2022-10-23T05:48:29.874Z,1012.82
2022-10-23T05:49:12.735Z,1012.83
2022-10-23T05:50:13.840Z,1012.80
2022-10-23T05:51:14.098Z,1012.83
2022-10-23T05:52:13.118Z,1012.78
2022-10-23T05:53:13.443Z,1012.80
2022-10-23T05:54:13.690Z,1012.75
2022-10-23T05:55:13.597Z,1012.78
2022-10-23T05:56:13.809Z,1012.76
2022-10-23T05:57:13.990Z,1012.76
2022-10-23T05:58:13.147Z,1012.77
2022-10-23T05:59:13.284Z,1012.75
2022-10-23T06:00:13.354Z,1012.73
2022-10-23T06:01:13.502Z,1012.74
2022-10-23T06:02:13.618Z,1012.72
2022-10-23T06:03:13.717Z,1012.70
2022-10-23T06:04:13.575Z,1012.74
2022-10-23T06:05:14.353Z,1012.71
2022-10-23T06:06:14.016Z,1012.66
2022-10-23T06:07:12.889Z,1012.64
2022-10-23T06:08:13.857Z,1012.61
2022-10-23T06:09:14.080Z,1012.62
2022-10-23T06:10:13.145Z,1012.58
2022-10-23T06:11:13.173Z,1012.55
2022-10-23T06:12:13.092Z,1012.48
2022-10-23T06:13:13.069Z,1012.44
2022-10-23T06:14:13.362Z,1012.41
2022-10-23T06:15:13.345Z,1012.38
2022-10-23T06:16:14.421Z,1012.35
2022-10-23T06:17:13.438Z,1012.37
2022-10-23T06:18:13.896Z,1012.37
2022-10-23T06:19:12.729Z,1012.42
2022-10-23T06:20:13.552Z,1012.41
2022-10-23T06:21:13.801Z,1012.37
2022-10-23T06:22:13.904Z,1012.40
2022-10-23T06:23:12.994Z,1012.41
2022-10-23T06:24:12.907Z,1012.40
2022-10-23T06:25:12.747Z,1012.37
2022-10-23T06:26:13.644Z,1012.37
2022-10-23T06:27:13.682Z,1012.35
2022-10-23T06:28:16.992Z,1012.34
2022-10-23T06:29:13.815Z,1012.34
2022-10-23T06:30:13.620Z,1012.33
2022-10-23T06:31:13.450Z,1012.30
2022-10-23T06:32:13.419Z,1012.33
2022-10-23T06:33:13.308Z,1012.29
2022-10-23T06:34:13.318Z,1012.28
2022-10-23T06:35:13.360Z,1012.28
2022-10-23T06:36:13.253Z,1012.26
2022-10-23T06:37:13.476Z,1012.27
2022-10-23T06:38:13.303Z,1012.27
2022-10-23T06:39:13.480Z,1012.26
2022-10-23T06:40:13.582Z,1012.28
2022-10-23T06:41:13.700Z,1012.31
2022-10-23T06:42:13.575Z,1012.29
2022-10-23T06:43:13.479Z,1012.31
2022-10-23T06:44:13.484Z,1012.31
2022-10-23T06:45:13.458Z,1012.33
2022-10-23T06:46:13.420Z,1012.34
2022-10-23T06:47:13.353Z,1012.33
2022-10-23T06:48:13.194Z,1012.28
2022-10-23T06:49:13.012Z,1012.30
2022-10-23T06:50:15.434Z,1012.32
2022-10-23T06:51:13.720Z,1012.28
2022-10-23T06:52:18.432Z,1012.33
2022-10-23T06:53:13.909Z,1012.32
2022-10-23T06:54:59.223Z,1012.34
2022-10-23T06:55:13.349Z,1012.33
2022-10-23T06:56:13.359Z,1012.35
2022-10-23T06:57:13.453Z,1012.37
2022-10-23T06:58:13.583Z,1012.39
2022-10-23T06:59:13.622Z,1012.34
2022-10-23T07:00:13.612Z,1012.40
2022-10-23T07:01:14.272Z,1012.38
2022-10-23T07:02:23.893Z,1012.39
2022-10-23T07:03:13.070Z,1012.41
2022-10-23T07:04:13.184Z,1012.41
2022-10-23T07:05:13.899Z,1012.40
2022-10-23T07:06:13.065Z,1012.41
2022-10-23T07:07:12.891Z,1012.45
2022-10-23T07:08:13.087Z,1012.45
2022-10-23T07:09:13.216Z,1012.38
2022-10-23T07:11:13.250Z,1012.41
2022-10-23T07:12:14.320Z,1012.42
2022-10-23T07:13:13.425Z,1012.45
2022-10-23T07:14:13.299Z,1012.42
2022-10-23T07:15:13.422Z,1012.41
2022-10-23T07:16:13.573Z,1012.39
2022-10-23T07:17:13.964Z,1012.41
2022-10-23T07:18:12.852Z,1012.42
2022-10-23T07:19:13.798Z,1012.39
2022-10-23T07:20:13.894Z,1012.40
2022-10-23T07:21:13.116Z,1012.38
2022-10-23T07:22:15.746Z,1012.35
2022-10-23T07:23:15.257Z,1012.34
2022-10-23T07:24:13.308Z,1012.35
2022-10-23T07:25:13.538Z,1012.36
2022-10-23T07:26:13.436Z,1012.32
2022-10-23T07:27:13.405Z,1012.32
2022-10-23T07:28:13.637Z,1012.31
2022-10-23T07:29:13.666Z,1012.33
2022-10-23T07:30:13.849Z,1012.33
2022-10-23T07:31:13.923Z,1012.33
2022-10-23T07:32:12.859Z,1012.34
2022-10-23T07:33:13.875Z,1012.28
2022-10-23T07:34:14.056Z,1012.28
2022-10-23T07:36:13.159Z,1012.29
2022-10-23T07:37:13.349Z,1012.30
2022-10-23T07:38:13.454Z,1012.32
2022-10-23T07:39:13.407Z,1012.35
2022-10-23T07:40:13.341Z,1012.34
2022-10-23T07:41:13.425Z,1012.35
2022-10-23T07:42:13.641Z,1012.35
2022-10-23T07:43:13.647Z,1012.34
2022-10-23T07:44:13.755Z,1012.31
2022-10-23T07:45:13.636Z,1012.29
2022-10-23T07:46:13.662Z,1012.28
2022-10-23T07:47:13.593Z,1012.32
2022-10-23T07:48:13.427Z,1012.31
2022-10-23T07:49:13.744Z,1012.30
2022-10-23T07:50:13.630Z,1012.27
2022-10-23T07:51:13.513Z,1012.27
2022-10-23T07:52:13.390Z,1012.30
2022-10-23T07:53:13.328Z,1012.33
2022-10-23T07:54:13.166Z,1012.29
2022-10-23T07:55:13.341Z,1012.26
2022-10-23T07:56:13.404Z,1012.27
2022-10-23T07:57:13.560Z,1012.24
2022-10-23T07:58:13.605Z,1012.22
2022-10-23T07:59:13.521Z,1012.21
2022-10-23T08:00:13.498Z,1012.21
2022-10-23T08:01:13.491Z,1012.21
2022-10-23T08:02:13.556Z,1012.16
2022-10-23T08:03:13.548Z,1012.20
2022-10-23T08:04:13.471Z,1012.17
2022-10-23T08:05:13.502Z,1012.14
2022-10-23T08:06:13.412Z,1012.18
2022-10-23T08:07:13.508Z,1012.15
2022-10-23T08:08:13.424Z,1012.13
2022-10-23T08:09:13.540Z,1012.11
2022-10-23T08:10:13.783Z,1012.18
2022-10-23T08:11:14.182Z,1012.13
2022-10-23T08:12:13.054Z,1012.16
2022-10-23T08:13:13.552Z,1012.16
2022-10-23T08:14:13.790Z,1012.13
2022-10-23T08:15:13.700Z,1012.13
2022-10-23T08:16:13.969Z,1012.09
2022-10-23T08:17:12.890Z,1012.09
2022-10-23T08:18:12.932Z,1012.14
2022-10-23T08:19:12.784Z,1012.09
2022-10-23T08:20:13.867Z,1012.07
2022-10-23T08:21:14.042Z,1012.12
2022-10-23T08:22:13.239Z,1012.04
2022-10-23T08:23:13.535Z,1012.07
2022-10-23T08:24:13.521Z,1012.03
2022-10-23T08:25:13.452Z,1012.01
2022-10-23T08:26:13.366Z,1012.01
2022-10-23T08:27:13.469Z,1012.00
2022-10-23T08:28:13.466Z,1012.00
2022-10-23T08:29:18.842Z,1012.00
2022-10-23T08:31:38.880Z,1011.94
2022-10-23T08:32:14.224Z,1011.98
2022-10-23T08:33:13.516Z,1011.96
2022-10-23T08:34:13.911Z,1011.95
2022-10-23T08:35:13.167Z,1011.87
2022-10-23T08:36:13.382Z,1011.86
2022-10-23T08:37:13.494Z,1011.86
2022-10-23T08:38:14.027Z,1011.81
2022-10-23T08:39:13.337Z,1011.83
2022-10-23T08:40:13.557Z,1011.79
2022-10-23T08:41:13.501Z,1011.79
2022-10-23T08:42:13.897Z,1011.80
2022-10-23T08:43:13.148Z,1011.83
2022-10-23T08:44:13.243Z,1011.83
2022-10-23T08:45:13.345Z,1011.83
2022-10-23T08:46:13.596Z,1011.84
2022-10-23T08:47:13.573Z,1011.87
2022-10-23T08:48:13.464Z,1011.86
2022-10-23T08:49:13.403Z,1011.79
2022-10-23T08:50:13.414Z,1011.81
2022-10-23T08:51:13.695Z,1011.79
2022-10-23T08:52:14.200Z,1011.81
2022-10-23T08:53:13.773Z,1011.81
2022-10-23T08:54:13.877Z,1011.77
2022-10-23T08:55:13.774Z,1011.75
2022-10-23T08:56:13.759Z,1011.77
2022-10-23T08:57:14.037Z,1011.78
2022-10-23T08:58:13.529Z,1011.80
2022-10-23T08:59:13.448Z,1011.81
2022-10-23T09:00:13.293Z,1011.80
2022-10-23T09:01:13.426Z,1011.73
2022-10-23T09:02:13.772Z,1011.76
2022-10-23T09:03:13.882Z,1011.73
2022-10-23T09:04:14.094Z,1011.73
2022-10-23T09:05:13.234Z,1011.69
2022-10-23T09:06:13.545Z,1011.71
2022-10-23T09:07:13.479Z,1011.67
2022-10-23T09:08:13.388Z,1011.67
2022-10-23T09:09:13.561Z,1011.63
2022-10-23T09:10:13.638Z,1011.68
2022-10-23T09:11:13.871Z,1011.67
2022-10-23T09:12:13.902Z,1011.70
2022-10-23T09:13:13.196Z,1011.72
2022-10-23T09:14:13.517Z,1011.67
2022-10-23T09:15:13.435Z,1011.67
2022-10-23T09:16:13.499Z,1011.70
2022-10-23T09:18:13.877Z,1011.62
2022-10-23T09:19:13.654Z,1011.59
2022-10-23T09:20:13.556Z,1011.61
2022-10-23T09:21:13.496Z,1011.62
2022-10-23T09:22:13.732Z,1011.64
2022-10-23T09:23:13.557Z,1011.63
2022-10-23T09:24:13.424Z,1011.66
2022-10-23T09:25:13.606Z,1011.66
2022-10-23T09:26:13.881Z,1011.64
2022-10-23T09:27:13.869Z,1011.63
2022-10-23T09:28:14.095Z,1011.64
2022-10-23T09:29:12.990Z,1011.66
2022-10-23T09:30:12.890Z,1011.62
2022-10-23T09:31:13.677Z,1011.55
2022-10-23T09:32:13.567Z,1011.55
2022-10-23T09:33:13.683Z,1011.53
2022-10-23T09:34:13.556Z,1011.49
2022-10-23T09:35:13.474Z,1011.49
2022-10-23T09:36:13.368Z,1011.52
2022-10-23T09:37:13.410Z,1011.49
2022-10-23T09:38:13.524Z,1011.51
2022-10-23T09:39:14.225Z,1011.49
2022-10-23T09:40:13.291Z,1011.46
2022-10-23T09:41:13.429Z,1011.44
2022-10-23T09:42:13.483Z,1011.39
2022-10-23T09:43:13.778Z,1011.35
2022-10-23T09:44:14.081Z,1011.33
2022-10-23T09:45:13.087Z,1011.34
2022-10-23T09:46:13.118Z,1011.29
2022-10-23T09:47:13.078Z,1011.31
2022-10-23T09:48:12.987Z,1011.28
2022-10-23T09:49:12.844Z,1011.23
2022-10-23T09:50:13.744Z,1011.18
2022-10-23T09:51:14.036Z,1011.19
2022-10-23T09:52:12.933Z,1011.21
2022-10-23T09:53:13.236Z,1011.17
2022-10-23T09:54:13.240Z,1011.12
2022-10-23T09:55:13.264Z,1011.10
2022-10-23T09:56:13.730Z,1011.14
2022-10-23T09:57:13.743Z,1011.13
2022-10-23T09:58:14.087Z,1011.14
2022-10-23T09:59:13.417Z,1011.08
2022-10-23T10:00:13.263Z,1011.12
2022-10-23T10:01:13.421Z,1011.13
2022-10-23T10:02:13.786Z,1011.15
2022-10-23T10:03:12.777Z,1011.19
2022-10-23T10:04:13.670Z,1011.16
2022-10-23T10:05:14.399Z,1011.19
2022-10-23T10:06:13.275Z,1011.16
2022-10-23T10:07:13.546Z,1011.14
2022-10-23T10:08:13.498Z,1011.13
2022-10-23T10:09:13.314Z,1011.20
2022-10-23T10:10:13.206Z,1011.14
2022-10-23T10:11:13.146Z,1011.15
2022-10-23T10:12:13.400Z,1011.12
2022-10-23T10:13:15.066Z,1011.11
2022-10-23T10:14:13.221Z,1011.07
2022-10-23T10:15:13.263Z,1011.09
2022-10-23T10:16:13.112Z,1011.10
2022-10-23T10:17:13.122Z,1011.04
2022-10-23T10:18:13.725Z,1011.01
2022-10-23T10:19:13.833Z,1011.01
2022-10-23T10:20:13.885Z,1011.01
2022-10-23T10:21:14.074Z,1010.98
2022-10-23T10:22:12.936Z,1010.94
2022-10-23T10:23:12.944Z,1010.96
2022-10-23T10:24:12.769Z,1011.00
2022-10-23T10:25:14.195Z,1010.90
2022-10-23T10:26:14.887Z,1010.90
2022-10-23T10:27:13.108Z,1010.95
2022-10-23T10:28:12.981Z,1010.91
2022-10-23T10:29:12.965Z,1010.90
2022-10-23T10:30:13.142Z,1010.92
2022-10-23T10:31:13.325Z,1010.91
2022-10-23T10:32:13.161Z,1010.89
2022-10-23T10:33:13.428Z,1010.84
2022-10-23T10:34:13.266Z,1010.80
2022-10-23T10:35:13.173Z,1010.80
2022-10-23T10:36:13.136Z,1010.82
2022-10-23T10:37:13.060Z,1010.81
2022-10-23T10:38:13.202Z,1010.76
2022-10-23T10:39:13.495Z,1010.73
2022-10-23T10:40:13.348Z,1010.67
2022-10-23T10:41:13.376Z,1010.68
2022-10-23T10:42:13.244Z,1010.66
2022-10-23T10:43:13.580Z,1010.60
2022-10-23T10:44:13.614Z,1010.62
2022-10-23T10:45:13.633Z,1010.63
2022-10-23T10:46:13.598Z,1010.59
2022-10-23T10:47:15.961Z,1010.58
2022-10-23T10:48:13.841Z,1010.55
2022-10-23T10:49:14.298Z,1010.54
2022-10-23T10:50:13.265Z,1010.51
2022-10-23T10:51:13.784Z,1010.51
2022-10-23T10:52:14.049Z,1010.47
2022-10-23T10:53:13.382Z,1010.46
2022-10-23T10:54:13.600Z,1010.46
2022-10-23T10:55:13.755Z,1010.46
2022-10-23T10:56:13.923Z,1010.45
2022-10-23T10:57:12.785Z,1010.43
2022-10-23T10:58:13.798Z,1010.38
2022-10-23T10:59:13.841Z,1010.38
2022-10-23T11:00:13.955Z,1010.34
2022-10-23T11:01:12.927Z,1010.32
2022-10-23T11:02:13.133Z,1010.31
2022-10-23T11:03:13.178Z,1010.24
2022-10-23T11:04:13.462Z,1010.21
2022-10-23T11:05:13.322Z,1010.21
2022-10-23T11:06:13.247Z,1010.26
2022-10-23T11:07:13.271Z,1010.25
2022-10-23T11:08:13.209Z,1010.31
2022-10-23T11:09:20.336Z,1010.31
2022-10-23T11:10:12.911Z,1010.28
2022-10-23T11:11:12.920Z,1010.24
2022-10-23T11:12:13.209Z,1010.23
2022-10-23T11:13:13.201Z,1010.16
2022-10-23T11:14:13.158Z,1010.15
2022-10-23T11:15:13.161Z,1010.14
2022-10-23T11:16:13.022Z,1010.15
2022-10-23T11:17:13.139Z,1010.17
2022-10-23T11:18:13.026Z,1010.11
2022-10-23T11:19:14.169Z,1010.08
2022-10-23T11:20:13.601Z,1010.06
2022-10-23T11:21:13.507Z,1010.03
2022-10-23T11:22:13.525Z,1010.02
2022-10-23T11:23:13.450Z,1010.00
2022-10-23T11:24:13.276Z,1009.98
2022-10-23T11:25:13.155Z,1009.99
2022-10-23T11:26:16.209Z,1009.93
2022-10-23T11:27:12.751Z,1009.95
2022-10-23T11:28:13.777Z,1009.89
2022-10-23T11:29:12.859Z,1009.89
2022-10-23T11:30:13.964Z,1009.85
2022-10-23T11:31:13.117Z,1009.82
2022-10-23T11:32:13.248Z,1009.80
2022-10-23T11:33:13.520Z,1009.78
2022-10-23T11:34:15.010Z,1009.76
2022-10-23T11:35:13.159Z,1009.78
2022-10-23T11:36:13.190Z,1009.70
2022-10-23T11:37:13.360Z,1009.69
2022-10-23T11:38:13.496Z,1009.69
2022-10-23T11:39:13.479Z,1009.68
2022-10-23T11:40:13.616Z,1009.69
2022-10-23T11:41:13.685Z,1009.61
2022-10-23T11:42:13.797Z,1009.63
2022-10-23T11:43:13.885Z,1009.62
2022-10-23T11:44:13.791Z,1009.59
2022-10-23T11:45:13.746Z,1009.54
2022-10-23T11:46:13.647Z,1009.54
2022-10-23T11:47:13.482Z,1009.48
2022-10-23T11:48:13.606Z,1009.42
2022-10-23T11:49:13.500Z,1009.43
2022-10-23T11:50:13.593Z,1009.38
2022-10-23T11:51:13.552Z,1009.36
2022-10-23T11:52:13.774Z,1009.33
2022-10-23T11:53:15.105Z,1009.36
2022-10-23T11:54:12.970Z,1009.32
2022-10-23T11:55:13.031Z,1009.30
2022-10-23T11:56:13.040Z,1009.24
2022-10-23T11:57:12.990Z,1009.26
2022-10-23T11:58:12.895Z,1009.29
2022-10-23T11:59:14.098Z,1009.32
2022-10-23T12:00:12.990Z,1009.33
2022-10-23T12:01:12.964Z,1009.40
2022-10-23T12:02:13.529Z,1009.38
2022-10-23T12:03:13.346Z,1009.35
2022-10-23T12:04:13.187Z,1009.35
2022-10-23T12:05:13.104Z,1009.37
2022-10-23T12:06:13.179Z,1009.35
2022-10-23T12:07:13.287Z,1009.28
2022-10-23T12:08:13.315Z,1009.35
2022-10-23T12:09:13.326Z,1009.37
2022-10-23T12:10:13.440Z,1009.39
2022-10-23T12:11:13.389Z,1009.32